Terminal Aerodrome Forecast
Issued by NWS

Home | Current Version | Previous Version | Text Only | Print | Product List | Glossary On
Versions: 1 2 3 4 5 6 7 8 9 10 11 12 13 14 15 16 17 18 19 20 21 22
000
FTUS41 KAKQ 080208 AAA
TAFPHF
TAF AMD
KPHF 080208Z 0802/0824 00000KT P6SM SKC
      TEMPO 0802/0806 1SM BR
     FM080900 00000KT P6SM BKN100
     FM081400 00000KT P6SM OVC030
     FM081800 31006KT P6SM OVC015
     FM082000 31008KT P6SM BKN030
     FM082200 31009KT P6SM BKN200=

USA.gov is the U.S. government's official web portal to all federal, state and local government web resources and services.